sensor_id;sensor_type;location;lat;lon;timestamp;P1;durP1;ratioP1;P2;durP2;ratioP2
61471;SDS011;47337;54.068;12.114;2022-09-17T00:02:08;8.52;;;3.53;;
61471;SDS011;47337;54.068;12.114;2022-09-17T00:04:34;13.45;;;3.88;;
61471;SDS011;47337;54.068;12.114;2022-09-17T00:06:59;11.52;;;3.58;;
61471;SDS011;47337;54.068;12.114;2022-09-17T00:09:24;11.02;;;3.83;;
61471;SDS011;47337;54.068;12.114;2022-09-17T00:11:50;12.50;;;4.00;;
61471;SDS011;47337;54.068;12.114;2022-09-17T00:14:16;16.73;;;3.97;;
61471;SDS011;47337;54.068;12.114;2022-09-17T00:16:42;7.90;;;3.58;;
61471;SDS011;47337;54.068;12.114;2022-09-17T00:19:28;16.63;;;3.97;;
61471;SDS011;47337;54.068;12.114;2022-09-17T00:24:18;12.85;;;3.45;;
61471;SDS011;47337;54.068;12.114;2022-09-17T00:26:44;11.80;;;4.00;;
61471;SDS011;47337;54.068;12.114;2022-09-17T00:29:10;11.30;;;3.55;;
61471;SDS011;47337;54.068;12.114;2022-09-17T00:31:36;19.08;;;4.10;;
61471;SDS011;47337;54.068;12.114;2022-09-17T00:34:02;10.95;;;3.17;;
61471;SDS011;47337;54.068;12.114;2022-09-17T00:36:28;13.00;;;3.67;;
61471;SDS011;47337;54.068;12.114;2022-09-17T00:38:56;11.10;;;3.58;;
61471;SDS011;47337;54.068;12.114;2022-09-17T00:41:24;9.07;;;3.88;;
61471;SDS011;47337;54.068;12.114;2022-09-17T00:43:55;11.73;;;3.45;;
61471;SDS011;47337;54.068;12.114;2022-09-17T00:46:30;18.55;;;3.80;;
61471;SDS011;47337;54.068;12.114;2022-09-17T00:49:19;17.40;;;3.97;;
61471;SDS011;47337;54.068;12.114;2022-09-17T00:52:14;19.15;;;3.85;;
61471;SDS011;47337;54.068;12.114;2022-09-17T00:57:16;10.45;;;3.10;;
61471;SDS011;47337;54.068;12.114;2022-09-17T00:59:42;12.98;;;3.88;;
61471;SDS011;47337;54.068;12.114;2022-09-17T01:02:09;15.50;;;3.67;;
61471;SDS011;47337;54.068;12.114;2022-09-17T01:04:35;16.23;;;3.55;;
61471;SDS011;47337;54.068;12.114;2022-09-17T01:09:58;15.88;;;4.00;;
61471;SDS011;47337;54.068;12.114;2022-09-17T01:25:57;16.70;;;4.82;;
61471;SDS011;47337;54.068;12.114;2022-09-17T01:39:39;22.33;;;4.95;;
61471;SDS011;47337;54.068;12.114;2022-09-17T01:49:40;14.55;;;4.30;;
61471;SDS011;47337;54.068;12.114;2022-09-17T01:52:06;6.90;;;3.03;;
61471;SDS011;47337;54.068;12.114;2022-09-17T01:54:48;6.88;;;2.78;;
61471;SDS011;47337;54.068;12.114;2022-09-17T01:59:56;10.25;;;2.60;;
61471;SDS011;47337;54.068;12.114;2022-09-17T02:02:31;15.43;;;3.58;;
61471;SDS011;47337;54.068;12.114;2022-09-17T02:05:02;14.60;;;3.30;;
61471;SDS011;47337;54.068;12.114;2022-09-17T02:07:36;21.40;;;4.60;;
61471;SDS011;47337;54.068;12.114;2022-09-17T02:10:13;17.15;;;3.70;;
61471;SDS011;47337;54.068;12.114;2022-09-17T02:13:06;25.52;;;4.63;;
61471;SDS011;47337;54.068;12.114;2022-09-17T02:15:48;19.98;;;5.28;;
61471;SDS011;47337;54.068;12.114;2022-09-17T02:20:55;16.10;;;4.75;;
61471;SDS011;47337;54.068;12.114;2022-09-17T02:23:28;21.38;;;5.00;;
61471;SDS011;47337;54.068;12.114;2022-09-17T02:26:02;27.10;;;5.60;;
61471;SDS011;47337;54.068;12.114;2022-09-17T02:28:36;31.85;;;5.45;;
61471;SDS011;47337;54.068;12.114;2022-09-17T02:31:10;27.48;;;5.40;;
61471;SDS011;47337;54.068;12.114;2022-09-17T02:33:38;20.98;;;4.90;;
61471;SDS011;47337;54.068;12.114;2022-09-17T02:36:05;21.88;;;6.00;;
61471;SDS011;47337;54.068;12.114;2022-09-17T02:38:31;23.60;;;5.10;;
61471;SDS011;47337;54.068;12.114;2022-09-17T02:46:47;31.35;;;5.47;;
61471;SDS011;47337;54.068;12.114;2022-09-17T02:57:40;31.60;;;5.78;;
61471;SDS011;47337;54.068;12.114;2022-09-17T03:00:12;29.70;;;5.60;;
61471;SDS011;47337;54.068;12.114;2022-09-17T03:05:12;37.25;;;6.22;;
61471;SDS011;47337;54.068;12.114;2022-09-17T03:07:40;35.67;;;5.10;;
61471;SDS011;47337;54.068;12.114;2022-09-17T03:10:06;35.00;;;6.07;;
61471;SDS011;47337;54.068;12.114;2022-09-17T03:12:32;36.22;;;6.07;;
61471;SDS011;47337;54.068;12.114;2022-09-17T03:15:01;35.78;;;5.85;;
61471;SDS011;47337;54.068;12.114;2022-09-17T03:17:28;32.75;;;5.18;;
61471;SDS011;47337;54.068;12.114;2022-09-17T03:19:53;37.70;;;5.90;;
61471;SDS011;47337;54.068;12.114;2022-09-17T03:22:19;26.92;;;5.53;;
61471;SDS011;47337;54.068;12.114;2022-09-17T03:24:44;30.73;;;5.45;;
61471;SDS011;47337;54.068;12.114;2022-09-17T03:27:12;31.70;;;5.82;;
61471;SDS011;47337;54.068;12.114;2022-09-17T03:29:37;41.88;;;6.60;;
61471;SDS011;47337;54.068;12.114;2022-09-17T03:32:03;36.70;;;6.60;;
61471;SDS011;47337;54.068;12.114;2022-09-17T03:34:29;28.85;;;5.18;;
61471;SDS011;47337;54.068;12.114;2022-09-17T03:36:54;31.33;;;5.65;;
61471;SDS011;47337;54.068;12.114;2022-09-17T03:39:20;36.58;;;5.55;;
61471;SDS011;47337;54.068;12.114;2022-09-17T03:41:45;29.48;;;5.10;;
61471;SDS011;47337;54.068;12.114;2022-09-17T03:44:10;34.08;;;5.38;;
61471;SDS011;47337;54.068;12.114;2022-09-17T03:46:39;37.15;;;5.15;;
61471;SDS011;47337;54.068;12.114;2022-09-17T03:49:05;33.20;;;5.05;;
61471;SDS011;47337;54.068;12.114;2022-09-17T03:51:30;27.95;;;5.30;;
61471;SDS011;47337;54.068;12.114;2022-09-17T03:53:56;25.02;;;4.80;;
61471;SDS011;47337;54.068;12.114;2022-09-17T03:56:24;28.05;;;6.53;;
61471;SDS011;47337;54.068;12.114;2022-09-17T03:58:50;37.78;;;7.28;;
61471;SDS011;47337;54.068;12.114;2022-09-17T04:01:16;38.22;;;6.15;;
61471;SDS011;47337;54.068;12.114;2022-09-17T04:03:41;29.33;;;4.47;;
61471;SDS011;47337;54.068;12.114;2022-09-17T04:06:06;29.98;;;5.50;;
61471;SDS011;47337;54.068;12.114;2022-09-17T04:08:34;26.50;;;5.07;;
61471;SDS011;47337;54.068;12.114;2022-09-17T04:11:00;29.35;;;5.10;;
61471;SDS011;47337;54.068;12.114;2022-09-17T04:13:26;37.72;;;5.40;;
61471;SDS011;47337;54.068;12.114;2022-09-17T04:15:51;34.50;;;4.63;;
61471;SDS011;47337;54.068;12.114;2022-09-17T04:18:19;28.55;;;5.50;;
61471;SDS011;47337;54.068;12.114;2022-09-17T04:20:44;32.83;;;6.38;;
61471;SDS011;47337;54.068;12.114;2022-09-17T04:23:12;25.80;;;5.05;;
61471;SDS011;47337;54.068;12.114;2022-09-17T04:25:38;25.65;;;4.85;;
61471;SDS011;47337;54.068;12.114;2022-09-17T04:28:06;29.42;;;4.40;;
61471;SDS011;47337;54.068;12.114;2022-09-17T04:30:33;30.20;;;4.55;;
61471;SDS011;47337;54.068;12.114;2022-09-17T04:32:59;32.13;;;6.47;;
61471;SDS011;47337;54.068;12.114;2022-09-17T04:35:24;31.13;;;5.55;;
61471;SDS011;47337;54.068;12.114;2022-09-17T04:37:53;30.60;;;4.60;;
61471;SDS011;47337;54.068;12.114;2022-09-17T04:40:20;29.48;;;5.03;;
61471;SDS011;47337;54.068;12.114;2022-09-17T04:42:46;36.17;;;6.60;;
61471;SDS011;47337;54.068;12.114;2022-09-17T04:45:12;37.28;;;5.72;;
61471;SDS011;47337;54.068;12.114;2022-09-17T04:47:38;35.75;;;6.40;;
61471;SDS011;47337;54.068;12.114;2022-09-17T04:50:03;25.60;;;4.00;;
61471;SDS011;47337;54.068;12.114;2022-09-17T04:52:29;21.55;;;4.25;;
61471;SDS011;47337;54.068;12.114;2022-09-17T04:54:55;30.90;;;6.40;;
61471;SDS011;47337;54.068;12.114;2022-09-17T04:57:20;25.90;;;4.75;;
61471;SDS011;47337;54.068;12.114;2022-09-17T04:59:47;30.98;;;5.75;;
61471;SDS011;47337;54.068;12.114;2022-09-17T05:02:13;21.38;;;4.40;;
61471;SDS011;47337;54.068;12.114;2022-09-17T05:04:40;26.90;;;4.30;;
61471;SDS011;47337;54.068;12.114;2022-09-17T05:07:05;21.52;;;4.57;;
61471;SDS011;47337;54.068;12.114;2022-09-17T05:09:31;29.65;;;4.68;;
61471;SDS011;47337;54.068;12.114;2022-09-17T05:11:56;26.00;;;4.40;;
61471;SDS011;47337;54.068;12.114;2022-09-17T05:14:21;25.10;;;5.50;;
61471;SDS011;47337;54.068;12.114;2022-09-17T05:16:49;33.13;;;4.70;;
61471;SDS011;47337;54.068;12.114;2022-09-17T05:19:14;26.15;;;4.47;;
61471;SDS011;47337;54.068;12.114;2022-09-17T05:21:40;28.60;;;5.38;;
61471;SDS011;47337;54.068;12.114;2022-09-17T05:24:05;27.58;;;5.28;;
61471;SDS011;47337;54.068;12.114;2022-09-17T05:26:31;23.65;;;4.80;;
61471;SDS011;47337;54.068;12.114;2022-09-17T05:28:56;28.88;;;4.50;;
61471;SDS011;47337;54.068;12.114;2022-09-17T05:31:24;20.15;;;4.50;;
61471;SDS011;47337;54.068;12.114;2022-09-17T05:33:49;24.80;;;4.20;;
61471;SDS011;47337;54.068;12.114;2022-09-17T05:36:14;32.92;;;5.03;;
61471;SDS011;47337;54.068;12.114;2022-09-17T05:38:43;22.77;;;4.05;;
61471;SDS011;47337;54.068;12.114;2022-09-17T05:41:10;24.25;;;4.38;;
61471;SDS011;47337;54.068;12.114;2022-09-17T05:43:36;14.75;;;3.05;;
61471;SDS011;47337;54.068;12.114;2022-09-17T05:46:01;22.58;;;3.58;;
61471;SDS011;47337;54.068;12.114;2022-09-17T05:48:31;22.60;;;4.55;;
61471;SDS011;47337;54.068;12.114;2022-09-17T05:50:56;24.23;;;4.15;;
61471;SDS011;47337;54.068;12.114;2022-09-17T05:53:22;27.27;;;4.18;;
61471;SDS011;47337;54.068;12.114;2022-09-17T05:55:47;22.50;;;3.83;;
61471;SDS011;47337;54.068;12.114;2022-09-17T05:58:14;25.58;;;3.97;;
61471;SDS011;47337;54.068;12.114;2022-09-17T06:00:41;19.90;;;3.63;;
61471;SDS011;47337;54.068;12.114;2022-09-17T06:03:08;22.48;;;3.40;;
61471;SDS011;47337;54.068;12.114;2022-09-17T06:05:35;22.63;;;3.90;;
61471;SDS011;47337;54.068;12.114;2022-09-17T06:08:03;22.25;;;3.85;;
61471;SDS011;47337;54.068;12.114;2022-09-17T06:10:31;15.70;;;4.72;;
61471;SDS011;47337;54.068;12.114;2022-09-17T06:13:01;19.73;;;3.25;;
61471;SDS011;47337;54.068;12.114;2022-09-17T06:15:27;21.20;;;3.67;;
61471;SDS011;47337;54.068;12.114;2022-09-17T06:17:52;20.35;;;3.55;;
61471;SDS011;47337;54.068;12.114;2022-09-17T06:20:21;23.45;;;4.15;;
61471;SDS011;47337;54.068;12.114;2022-09-17T06:22:46;14.15;;;2.80;;
61471;SDS011;47337;54.068;12.114;2022-09-17T06:25:12;20.02;;;4.00;;
61471;SDS011;47337;54.068;12.114;2022-09-17T06:27:37;20.83;;;3.28;;
61471;SDS011;47337;54.068;12.114;2022-09-17T06:30:03;19.60;;;4.15;;
61471;SDS011;47337;54.068;12.114;2022-09-17T06:32:29;22.27;;;3.17;;
61471;SDS011;47337;54.068;12.114;2022-09-17T06:34:56;13.63;;;2.80;;
61471;SDS011;47337;54.068;12.114;2022-09-17T06:37:26;20.30;;;2.92;;
61471;SDS011;47337;54.068;12.114;2022-09-17T06:39:54;15.85;;;3.20;;
61471;SDS011;47337;54.068;12.114;2022-09-17T06:42:20;13.60;;;3.00;;
61471;SDS011;47337;54.068;12.114;2022-09-17T06:44:46;19.63;;;3.13;;
61471;SDS011;47337;54.068;12.114;2022-09-17T06:47:12;11.88;;;2.67;;
61471;SDS011;47337;54.068;12.114;2022-09-17T06:49:37;14.82;;;2.90;;
61471;SDS011;47337;54.068;12.114;2022-09-17T06:52:02;13.07;;;2.45;;
61471;SDS011;47337;54.068;12.114;2022-09-17T06:54:28;10.10;;;2.88;;
61471;SDS011;47337;54.068;12.114;2022-09-17T06:56:53;17.10;;;3.03;;
61471;SDS011;47337;54.068;12.114;2022-09-17T06:59:19;10.27;;;1.95;;
61471;SDS011;47337;54.068;12.114;2022-09-17T07:01:45;12.10;;;2.28;;
61471;SDS011;47337;54.068;12.114;2022-09-17T07:04:11;9.30;;;1.67;;
61471;SDS011;47337;54.068;12.114;2022-09-17T07:06:36;11.15;;;2.55;;
61471;SDS011;47337;54.068;12.114;2022-09-17T07:09:02;10.70;;;1.92;;
61471;SDS011;47337;54.068;12.114;2022-09-17T07:11:30;10.60;;;2.55;;
61471;SDS011;47337;54.068;12.114;2022-09-17T07:13:56;11.13;;;1.98;;
61471;SDS011;47337;54.068;12.114;2022-09-17T07:16:23;8.32;;;2.83;;
61471;SDS011;47337;54.068;12.114;2022-09-17T07:18:50;14.98;;;3.13;;
61471;SDS011;47337;54.068;12.114;2022-09-17T07:21:18;9.60;;;2.00;;
61471;SDS011;47337;54.068;12.114;2022-09-17T07:23:43;7.45;;;1.88;;
61471;SDS011;47337;54.068;12.114;2022-09-17T07:26:13;13.30;;;2.22;;
61471;SDS011;47337;54.068;12.114;2022-09-17T07:28:40;9.98;;;2.05;;
61471;SDS011;47337;54.068;12.114;2022-09-17T07:31:07;18.55;;;2.50;;
61471;SDS011;47337;54.068;12.114;2022-09-17T07:33:36;14.23;;;2.63;;
61471;SDS011;47337;54.068;12.114;2022-09-17T07:36:06;10.13;;;2.60;;
61471;SDS011;47337;54.068;12.114;2022-09-17T07:38:34;10.98;;;3.55;;
61471;SDS011;47337;54.068;12.114;2022-09-17T07:43:33;14.43;;;3.38;;
61471;SDS011;47337;54.068;12.114;2022-09-17T07:46:02;13.88;;;2.65;;
61471;SDS011;47337;54.068;12.114;2022-09-17T07:48:29;18.23;;;3.25;;
61471;SDS011;47337;54.068;12.114;2022-09-17T07:50:55;13.82;;;2.58;;
61471;SDS011;47337;54.068;12.114;2022-09-17T07:53:21;13.68;;;2.85;;
61471;SDS011;47337;54.068;12.114;2022-09-17T07:58:17;14.23;;;3.22;;
61471;SDS011;47337;54.068;12.114;2022-09-17T08:00:43;16.02;;;3.13;;
61471;SDS011;47337;54.068;12.114;2022-09-17T08:03:09;20.60;;;4.00;;
61471;SDS011;47337;54.068;12.114;2022-09-17T08:05:36;17.02;;;3.33;;
61471;SDS011;47337;54.068;12.114;2022-09-17T08:08:04;16.27;;;2.88;;
61471;SDS011;47337;54.068;12.114;2022-09-17T08:10:31;17.88;;;3.65;;
61471;SDS011;47337;54.068;12.114;2022-09-17T08:13:00;18.73;;;3.08;;
61471;SDS011;47337;54.068;12.114;2022-09-17T08:15:29;17.75;;;3.33;;
61471;SDS011;47337;54.068;12.114;2022-09-17T08:17:55;11.95;;;2.40;;
61471;SDS011;47337;54.068;12.114;2022-09-17T08:20:22;16.65;;;3.05;;
61471;SDS011;47337;54.068;12.114;2022-09-17T08:22:56;14.98;;;2.90;;
61471;SDS011;47337;54.068;12.114;2022-09-17T08:25:22;14.55;;;3.90;;
61471;SDS011;47337;54.068;12.114;2022-09-17T08:27:51;16.63;;;2.92;;
61471;SDS011;47337;54.068;12.114;2022-09-17T08:30:17;15.80;;;2.88;;
61471;SDS011;47337;54.068;12.114;2022-09-17T08:32:43;17.85;;;3.60;;
61471;SDS011;47337;54.068;12.114;2022-09-17T08:35:11;14.98;;;2.85;;
61471;SDS011;47337;54.068;12.114;2022-09-17T08:37:36;17.80;;;3.30;;
61471;SDS011;47337;54.068;12.114;2022-09-17T08:40:04;14.88;;;2.60;;
61471;SDS011;47337;54.068;12.114;2022-09-17T08:45:04;16.08;;;3.42;;
61471;SDS011;47337;54.068;12.114;2022-09-17T08:47:35;14.18;;;2.10;;
61471;SDS011;47337;54.068;12.114;2022-09-17T08:50:03;17.35;;;3.97;;
61471;SDS011;47337;54.068;12.114;2022-09-17T08:52:59;16.00;;;2.58;;
61471;SDS011;47337;54.068;12.114;2022-09-17T09:06:09;18.65;;;3.47;;
61471;SDS011;47337;54.068;12.114;2022-09-17T09:11:06;16.98;;;3.45;;
61471;SDS011;47337;54.068;12.114;2022-09-17T09:13:45;12.27;;;2.55;;
61471;SDS011;47337;54.068;12.114;2022-09-17T09:16:16;11.70;;;3.30;;
61471;SDS011;47337;54.068;12.114;2022-09-17T09:18:43;13.52;;;2.92;;
61471;SDS011;47337;54.068;12.114;2022-09-17T09:29:19;11.68;;;2.38;;
61471;SDS011;47337;54.068;12.114;2022-09-17T09:34:42;14.65;;;2.78;;
61471;SDS011;47337;54.068;12.114;2022-09-17T09:37:11;14.13;;;2.95;;
61471;SDS011;47337;54.068;12.114;2022-09-17T09:42:15;17.27;;;3.13;;
61471;SDS011;47337;54.068;12.114;2022-09-17T09:44:51;15.50;;;3.25;;
61471;SDS011;47337;54.068;12.114;2022-09-17T09:55:47;14.95;;;2.45;;
61471;SDS011;47337;54.068;12.114;2022-09-17T10:00:48;13.63;;;3.07;;
61471;SDS011;47337;54.068;12.114;2022-09-17T10:05:56;13.82;;;3.40;;
61471;SDS011;47337;54.068;12.114;2022-09-17T10:08:25;17.65;;;2.88;;
61471;SDS011;47337;54.068;12.114;2022-09-17T10:11:02;9.63;;;2.50;;
61471;SDS011;47337;54.068;12.114;2022-09-17T10:13:44;13.77;;;2.58;;
61471;SDS011;47337;54.068;12.114;2022-09-17T10:16:14;13.30;;;2.95;;
61471;SDS011;47337;54.068;12.114;2022-09-17T10:18:40;9.55;;;2.50;;
61471;SDS011;47337;54.068;12.114;2022-09-17T10:21:06;14.45;;;2.72;;
61471;SDS011;47337;54.068;12.114;2022-09-17T10:23:43;12.75;;;2.30;;
61471;SDS011;47337;54.068;12.114;2022-09-17T10:26:19;12.52;;;2.58;;
61471;SDS011;47337;54.068;12.114;2022-09-17T10:29:05;13.80;;;2.88;;
61471;SDS011;47337;54.068;12.114;2022-09-17T10:31:51;10.40;;;2.63;;
61471;SDS011;47337;54.068;12.114;2022-09-17T10:34:29;13.27;;;3.03;;
61471;SDS011;47337;54.068;12.114;2022-09-17T10:36:55;11.77;;;2.30;;
61471;SDS011;47337;54.068;12.114;2022-09-17T10:42:15;8.10;;;2.58;;
61471;SDS011;47337;54.068;12.114;2022-09-17T10:55:24;9.77;;;2.20;;
61471;SDS011;47337;54.068;12.114;2022-09-17T10:58:03;10.18;;;2.92;;
61471;SDS011;47337;54.068;12.114;2022-09-17T11:00:59;12.60;;;2.33;;
61471;SDS011;47337;54.068;12.114;2022-09-17T11:14:34;12.60;;;2.08;;
61471;SDS011;47337;54.068;12.114;2022-09-17T11:39:35;7.63;;;1.67;;
61471;SDS011;47337;54.068;12.114;2022-09-17T11:42:21;8.55;;;2.60;;
61471;SDS011;47337;54.068;12.114;2022-09-17T11:44:53;11.05;;;1.80;;
61471;SDS011;47337;54.068;12.114;2022-09-17T11:47:24;7.85;;;1.42;;
61471;SDS011;47337;54.068;12.114;2022-09-17T11:52:55;3.97;;;1.20;;
61471;SDS011;47337;54.068;12.114;2022-09-17T11:55:29;4.18;;;1.00;;
61471;SDS011;47337;54.068;12.114;2022-09-17T11:58:32;5.22;;;1.27;;
61471;SDS011;47337;54.068;12.114;2022-09-17T12:01:10;4.07;;;1.17;;
61471;SDS011;47337;54.068;12.114;2022-09-17T12:03:55;2.78;;;0.93;;
61471;SDS011;47337;54.068;12.114;2022-09-17T12:14:28;2.75;;;0.77;;
61471;SDS011;47337;54.068;12.114;2022-09-17T12:17:05;7.40;;;1.30;;
61471;SDS011;47337;54.068;12.114;2022-09-17T12:19:39;7.15;;;1.48;;
61471;SDS011;47337;54.068;12.114;2022-09-17T12:22:12;7.45;;;1.60;;
61471;SDS011;47337;54.068;12.114;2022-09-17T12:24:43;7.82;;;1.80;;
61471;SDS011;47337;54.068;12.114;2022-09-17T12:38:12;10.80;;;2.08;;
61471;SDS011;47337;54.068;12.114;2022-09-17T12:59:35;10.27;;;2.30;;
61471;SDS011;47337;54.068;12.114;2022-09-17T13:02:27;8.15;;;1.75;;
61471;SDS011;47337;54.068;12.114;2022-09-17T13:18:36;6.00;;;0.98;;
61471;SDS011;47337;54.068;12.114;2022-09-17T13:24:24;7.03;;;1.52;;
61471;SDS011;47337;54.068;12.114;2022-09-17T13:26:53;7.22;;;1.38;;
61471;SDS011;47337;54.068;12.114;2022-09-17T13:40:22;9.70;;;1.55;;
61471;SDS011;47337;54.068;12.114;2022-09-17T13:42:50;8.07;;;1.65;;
61471;SDS011;47337;54.068;12.114;2022-09-17T13:45:21;8.77;;;1.65;;
61471;SDS011;47337;54.068;12.114;2022-09-17T13:50:33;7.97;;;1.80;;
61471;SDS011;47337;54.068;12.114;2022-09-17T13:53:19;8.00;;;1.50;;
61471;SDS011;47337;54.068;12.114;2022-09-17T13:55:54;7.57;;;2.42;;
61471;SDS011;47337;54.068;12.114;2022-09-17T14:01:01;4.57;;;1.27;;
61471;SDS011;47337;54.068;12.114;2022-09-17T14:21:56;8.23;;;2.13;;
61471;SDS011;47337;54.068;12.114;2022-09-17T14:37:56;2.55;;;0.50;;
61471;SDS011;47337;54.068;12.114;2022-09-17T14:40:26;7.07;;;0.98;;
61471;SDS011;47337;54.068;12.114;2022-09-17T14:42:54;3.63;;;0.70;;
61471;SDS011;47337;54.068;12.114;2022-09-17T14:45:26;1.75;;;0.38;;
61471;SDS011;47337;54.068;12.114;2022-09-17T14:54:15;1.50;;;0.38;;
61471;SDS011;47337;54.068;12.114;2022-09-17T14:57:01;2.45;;;0.60;;
61471;SDS011;47337;54.068;12.114;2022-09-17T15:05:10;1.63;;;0.52;;
61471;SDS011;47337;54.068;12.114;2022-09-17T15:10:55;1.55;;;0.38;;
61471;SDS011;47337;54.068;12.114;2022-09-17T15:13:27;2.28;;;0.93;;
61471;SDS011;47337;54.068;12.114;2022-09-17T15:15:57;0.20;;;0.20;;
61471;SDS011;47337;54.068;12.114;2022-09-17T15:18:30;1.00;;;0.50;;
61471;SDS011;47337;54.068;12.114;2022-09-17T15:21:03;1.67;;;0.82;;
61471;SDS011;47337;54.068;12.114;2022-09-17T15:23:39;1.27;;;0.65;;
61471;SDS011;47337;54.068;12.114;2022-09-17T15:26:09;2.47;;;0.70;;
61471;SDS011;47337;54.068;12.114;2022-09-17T15:28:38;2.83;;;0.80;;
61471;SDS011;47337;54.068;12.114;2022-09-17T15:31:14;1.50;;;0.55;;
61471;SDS011;47337;54.068;12.114;2022-09-17T15:33:44;2.35;;;0.80;;
61471;SDS011;47337;54.068;12.114;2022-09-17T15:38:48;3.13;;;0.60;;
61471;SDS011;47337;54.068;12.114;2022-09-17T15:43:43;4.45;;;1.42;;
61471;SDS011;47337;54.068;12.114;2022-09-17T15:46:25;1.80;;;1.15;;
61471;SDS011;47337;54.068;12.114;2022-09-17T15:48:53;1.60;;;0.80;;
61471;SDS011;47337;54.068;12.114;2022-09-17T15:51:26;2.33;;;0.90;;
61471;SDS011;47337;54.068;12.114;2022-09-17T15:54:01;1.77;;;0.73;;
61471;SDS011;47337;54.068;12.114;2022-09-17T15:56:31;2.55;;;1.33;;
61471;SDS011;47337;54.068;12.114;2022-09-17T15:59:00;3.45;;;1.20;;
61471;SDS011;47337;54.068;12.114;2022-09-17T16:08:55;3.75;;;1.60;;
61471;SDS011;47337;54.068;12.114;2022-09-17T16:11:25;3.08;;;0.90;;
61471;SDS011;47337;54.068;12.114;2022-09-17T16:13:52;2.80;;;0.90;;
61471;SDS011;47337;54.068;12.114;2022-09-17T16:16:22;2.67;;;1.00;;
61471;SDS011;47337;54.068;12.114;2022-09-17T16:18:58;1.02;;;0.90;;
61471;SDS011;47337;54.068;12.114;2022-09-17T16:21:23;3.47;;;0.90;;
61471;SDS011;47337;54.068;12.114;2022-09-17T16:23:49;1.55;;;0.90;;
61471;SDS011;47337;54.068;12.114;2022-09-17T16:26:15;0.93;;;0.82;;
61471;SDS011;47337;54.068;12.114;2022-09-17T16:28:46;1.63;;;1.20;;
61471;SDS011;47337;54.068;12.114;2022-09-17T16:31:15;2.33;;;1.33;;
61471;SDS011;47337;54.068;12.114;2022-09-17T16:33:41;11.02;;;4.57;;
61471;SDS011;47337;54.068;12.114;2022-09-17T16:36:06;3.80;;;1.92;;
61471;SDS011;47337;54.068;12.114;2022-09-17T16:38:34;3.63;;;1.77;;
61471;SDS011;47337;54.068;12.114;2022-09-17T16:41:02;5.03;;;2.00;;
61471;SDS011;47337;54.068;12.114;2022-09-17T16:43:33;4.07;;;2.13;;
61471;SDS011;47337;54.068;12.114;2022-09-17T16:46:03;4.22;;;2.17;;
61471;SDS011;47337;54.068;12.114;2022-09-17T16:50:59;3.92;;;2.05;;
61471;SDS011;47337;54.068;12.114;2022-09-17T16:53:27;3.42;;;2.70;;
61471;SDS011;47337;54.068;12.114;2022-09-17T16:55:55;6.07;;;2.47;;
61471;SDS011;47337;54.068;12.114;2022-09-17T16:58:20;4.07;;;2.60;;
61471;SDS011;47337;54.068;12.114;2022-09-17T17:00:48;4.05;;;2.08;;
61471;SDS011;47337;54.068;12.114;2022-09-17T17:03:14;3.28;;;2.28;;
61471;SDS011;47337;54.068;12.114;2022-09-17T17:05:40;2.97;;;2.00;;
61471;SDS011;47337;54.068;12.114;2022-09-17T17:08:09;4.72;;;2.08;;
61471;SDS011;47337;54.068;12.114;2022-09-17T17:10:38;4.35;;;2.00;;
61471;SDS011;47337;54.068;12.114;2022-09-17T17:13:04;3.20;;;1.50;;
61471;SDS011;47337;54.068;12.114;2022-09-17T17:15:30;3.00;;;1.70;;
61471;SDS011;47337;54.068;12.114;2022-09-17T17:17:55;2.45;;;1.60;;
61471;SDS011;47337;54.068;12.114;2022-09-17T17:20:21;2.38;;;1.25;;
61471;SDS011;47337;54.068;12.114;2022-09-17T17:22:47;3.83;;;1.48;;
61471;SDS011;47337;54.068;12.114;2022-09-17T17:25:15;2.40;;;1.30;;
61471;SDS011;47337;54.068;12.114;2022-09-17T17:27:41;1.88;;;1.27;;
61471;SDS011;47337;54.068;12.114;2022-09-17T17:30:08;6.78;;;1.60;;
61471;SDS011;47337;54.068;12.114;2022-09-17T17:32:34;6.65;;;1.90;;
61471;SDS011;47337;54.068;12.114;2022-09-17T17:35:03;1.85;;;1.13;;
61471;SDS011;47337;54.068;12.114;2022-09-17T17:37:31;2.17;;;1.55;;
61471;SDS011;47337;54.068;12.114;2022-09-17T17:39:56;3.85;;;1.50;;
61471;SDS011;47337;54.068;12.114;2022-09-17T17:42:22;1.83;;;1.50;;
61471;SDS011;47337;54.068;12.114;2022-09-17T17:44:49;4.10;;;1.80;;
61471;SDS011;47337;54.068;12.114;2022-09-17T17:47:15;4.30;;;1.30;;
61471;SDS011;47337;54.068;12.114;2022-09-17T17:49:42;2.28;;;1.55;;
61471;SDS011;47337;54.068;12.114;2022-09-17T17:52:08;2.03;;;1.23;;
61471;SDS011;47337;54.068;12.114;2022-09-17T17:54:33;5.00;;;2.20;;
61471;SDS011;47337;54.068;12.114;2022-09-17T17:56:59;6.00;;;1.95;;
61471;SDS011;47337;54.068;12.114;2022-09-17T17:59:25;4.30;;;1.92;;
61471;SDS011;47337;54.068;12.114;2022-09-17T18:01:50;4.03;;;1.80;;
61471;SDS011;47337;54.068;12.114;2022-09-17T18:04:15;4.43;;;2.15;;
61471;SDS011;47337;54.068;12.114;2022-09-17T18:06:41;5.15;;;2.10;;
61471;SDS011;47337;54.068;12.114;2022-09-17T18:09:12;3.78;;;2.30;;
61471;SDS011;47337;54.068;12.114;2022-09-17T18:11:37;2.78;;;2.00;;
61471;SDS011;47337;54.068;12.114;2022-09-17T18:14:02;5.20;;;2.15;;
61471;SDS011;47337;54.068;12.114;2022-09-17T18:16:28;4.80;;;1.80;;
61471;SDS011;47337;54.068;12.114;2022-09-17T18:18:54;7.60;;;2.20;;
61471;SDS011;47337;54.068;12.114;2022-09-17T18:21:22;4.53;;;1.70;;
61471;SDS011;47337;54.068;12.114;2022-09-17T18:23:48;5.25;;;1.50;;
61471;SDS011;47337;54.068;12.114;2022-09-17T18:26:15;5.70;;;1.38;;
61471;SDS011;47337;54.068;12.114;2022-09-17T18:28:43;3.50;;;1.40;;
61471;SDS011;47337;54.068;12.114;2022-09-17T18:31:23;3.83;;;1.83;;
61471;SDS011;47337;54.068;12.114;2022-09-17T18:33:54;3.63;;;1.80;;
61471;SDS011;47337;54.068;12.114;2022-09-17T18:36:21;4.85;;;1.30;;
61471;SDS011;47337;54.068;12.114;2022-09-17T18:38:51;6.72;;;2.13;;
61471;SDS011;47337;54.068;12.114;2022-09-17T18:41:17;4.55;;;2.03;;
61471;SDS011;47337;54.068;12.114;2022-09-17T18:43:42;3.17;;;1.60;;
61471;SDS011;47337;54.068;12.114;2022-09-17T18:46:10;4.47;;;1.70;;
61471;SDS011;47337;54.068;12.114;2022-09-17T18:48:35;3.92;;;1.90;;
61471;SDS011;47337;54.068;12.114;2022-09-17T18:51:04;5.55;;;1.55;;
61471;SDS011;47337;54.068;12.114;2022-09-17T18:53:33;2.47;;;1.08;;
61471;SDS011;47337;54.068;12.114;2022-09-17T18:56:03;1.35;;;1.00;;
61471;SDS011;47337;54.068;12.114;2022-09-17T18:58:40;3.05;;;1.15;;
61471;SDS011;47337;54.068;12.114;2022-09-17T19:01:09;3.38;;;0.80;;
61471;SDS011;47337;54.068;12.114;2022-09-17T19:03:35;2.33;;;0.98;;
61471;SDS011;47337;54.068;12.114;2022-09-17T19:06:02;2.58;;;0.90;;
61471;SDS011;47337;54.068;12.114;2022-09-17T19:08:28;1.05;;;0.50;;
61471;SDS011;47337;54.068;12.114;2022-09-17T19:10:54;0.90;;;0.43;;
61471;SDS011;47337;54.068;12.114;2022-09-17T19:13:20;1.95;;;0.60;;
61471;SDS011;47337;54.068;12.114;2022-09-17T19:15:45;3.25;;;0.50;;
61471;SDS011;47337;54.068;12.114;2022-09-17T19:18:11;1.35;;;0.50;;
61471;SDS011;47337;54.068;12.114;2022-09-17T19:20:37;1.30;;;0.40;;
61471;SDS011;47337;54.068;12.114;2022-09-17T19:23:03;2.53;;;0.80;;
61471;SDS011;47337;54.068;12.114;2022-09-17T19:25:33;3.00;;;0.70;;
61471;SDS011;47337;54.068;12.114;2022-09-17T19:27:59;1.77;;;0.93;;
61471;SDS011;47337;54.068;12.114;2022-09-17T19:30:24;2.28;;;1.10;;